createdAt,value
2018-05-12T09:28:14.041Z,6.80
2018-05-12T09:30:42.621Z,7.40
2018-05-12T09:33:11.346Z,7.87
2018-05-12T09:35:41.723Z,8.80
2018-05-12T09:38:11.188Z,7.50
2018-05-12T09:40:39.742Z,7.40
2018-05-12T09:43:09.112Z,8.27
2018-05-12T09:45:37.610Z,8.63
2018-05-12T09:48:06.401Z,7.77
2018-05-12T09:50:34.916Z,8.20
2018-05-12T09:53:04.697Z,8.33
2018-05-12T09:55:33.235Z,8.87
2018-05-12T09:58:02.686Z,13.13
2018-05-12T10:00:32.438Z,14.07
2018-05-12T10:03:01.228Z,10.10
2018-05-12T10:05:29.769Z,10.40
2018-05-12T10:07:58.445Z,13.20
2018-05-12T10:10:27.756Z,12.30
2018-05-12T10:12:56.610Z,8.83
2018-05-12T10:15:26.107Z,10.47
2018-05-12T10:17:55.522Z,8.83
2018-05-12T10:20:24.114Z,10.93
2018-05-12T10:22:52.794Z,11.33
2018-05-12T10:25:22.195Z,13.13
2018-05-12T10:27:52.966Z,11.57
2018-05-12T10:30:21.605Z,10.80
2018-05-12T10:32:50.912Z,10.03
2018-05-12T10:35:20.567Z,8.83
2018-05-12T10:37:50.879Z,9.33
2018-05-12T10:40:19.521Z,9.40
2018-05-12T10:42:49.675Z,9.10
2018-05-12T10:45:18.531Z,8.47
2018-05-12T10:47:48.398Z,9.70
2018-05-12T10:50:17.714Z,7.43
2018-05-12T10:52:46.759Z,9.43
2018-05-12T10:55:17.061Z,8.80
2018-05-12T10:57:46.976Z,8.13
2018-05-12T11:00:15.834Z,7.60
2018-05-12T11:02:45.577Z,7.20
2018-05-12T11:05:14.700Z,7.20
2018-05-12T11:07:44.086Z,10.27
2018-05-12T11:10:13.798Z,10.00
2018-05-12T11:12:45.631Z,10.90
2018-05-12T11:15:14.787Z,13.27
2018-05-12T11:17:44.336Z,14.43
2018-05-12T11:20:13.719Z,15.13
2018-05-12T11:22:43.218Z,14.53
2018-05-12T11:25:12.981Z,17.73
2018-05-12T11:27:42.741Z,18.60
2018-05-12T11:30:11.899Z,19.47
2018-05-12T11:32:41.271Z,18.33
2018-05-12T11:37:43.452Z,17.87
2018-05-12T11:40:13.020Z,15.83
2018-05-12T11:42:43.700Z,17.63
2018-05-12T11:45:14.154Z,16.77
2018-05-12T11:47:43.711Z,16.37
2018-05-12T11:50:12.533Z,13.30
2018-05-12T11:52:41.235Z,13.53
2018-05-12T11:55:10.057Z,13.30
2018-05-12T12:00:13.228Z,11.27
2018-05-12T12:02:42.572Z,11.83
2018-05-12T12:05:12.456Z,9.20
2018-05-12T12:07:41.115Z,10.00
2018-05-12T12:10:11.030Z,9.03
2018-05-12T12:12:39.641Z,9.00
2018-05-12T12:15:09.340Z,9.77
2018-05-12T12:17:37.974Z,7.93
2018-05-12T12:20:07.305Z,8.07
2018-05-12T12:22:35.916Z,8.40
2018-05-12T12:25:05.082Z,7.57
2018-05-12T12:27:34.473Z,7.90
2018-05-12T12:30:04.539Z,6.97
2018-05-12T12:32:33.546Z,7.60
2018-05-12T12:35:02.825Z,7.47
2018-05-12T12:37:33.465Z,7.60
2018-05-12T12:40:02.876Z,7.70
2018-05-12T12:42:31.481Z,6.63
2018-05-12T12:45:00.208Z,6.80
2018-05-12T12:47:29.140Z,8.63
2018-05-12T12:49:57.656Z,9.00
2018-05-12T12:52:27.125Z,10.17
2018-05-12T12:54:55.750Z,8.23
2018-05-12T12:57:24.389Z,9.23
2018-05-12T12:59:53.769Z,9.93
2018-05-12T13:02:23.817Z,11.67
2018-05-12T13:04:52.779Z,11.13
2018-05-12T13:07:22.357Z,9.53
2018-05-12T13:09:51.974Z,11.80
2018-05-12T13:12:21.597Z,10.53
2018-05-12T13:14:51.413Z,11.33
2018-05-12T13:17:20.918Z,10.77
2018-05-12T13:19:50.350Z,9.13
2018-05-12T13:22:18.975Z,9.13
2018-05-12T13:24:48.025Z,8.23
2018-05-12T13:27:17.378Z,9.60
2018-05-12T13:29:45.951Z,8.87
2018-05-12T13:32:15.342Z,9.83
2018-05-12T13:34:44.595Z,8.37
2018-05-12T13:37:15.131Z,8.13
2018-05-12T13:39:45.827Z,8.43
2018-05-12T13:42:15.402Z,7.60
2018-05-12T13:44:44.785Z,8.10
2018-05-12T13:47:14.765Z,8.80
2018-05-12T13:49:43.717Z,7.57
2018-05-12T13:52:12.403Z,9.97
2018-05-12T13:54:41.921Z,8.60
2018-05-12T13:57:10.553Z,8.60
2018-05-12T13:59:39.978Z,8.67
2018-05-12T14:02:09.372Z,12.90
2018-05-12T14:04:39.806Z,13.67
2018-05-12T14:07:08.353Z,14.27
2018-05-12T14:09:36.918Z,15.87
2018-05-12T14:12:05.695Z,15.73
2018-05-12T14:14:35.741Z,14.20
2018-05-12T14:17:04.934Z,12.30
2018-05-12T14:19:33.569Z,16.83
2018-05-12T14:22:03.716Z,16.97
2018-05-12T14:24:32.727Z,18.53
2018-05-12T14:27:01.358Z,15.10
2018-05-12T14:29:31.797Z,15.50
2018-05-12T14:32:02.595Z,15.97
2018-05-12T14:34:31.499Z,18.53
2018-05-12T14:37:01.822Z,16.87
2018-05-12T14:39:31.443Z,15.40
2018-05-12T14:42:01.380Z,16.03
2018-05-12T14:44:30.060Z,15.17
2018-05-12T14:46:59.534Z,15.07
2018-05-12T14:49:29.007Z,16.80
2018-05-12T14:51:57.740Z,15.53
2018-05-12T14:54:28.025Z,14.53
2018-05-12T14:56:56.762Z,17.73
2018-05-12T14:59:27.056Z,13.37
2018-05-12T15:01:55.634Z,16.13
2018-05-12T15:04:24.873Z,16.93
2018-05-12T15:06:55.385Z,14.97
2018-05-12T15:09:24.699Z,13.13
2018-05-12T15:11:54.010Z,16.10
2018-05-12T15:14:23.731Z,15.97
2018-05-12T15:16:52.663Z,15.87
2018-05-12T15:19:21.475Z,13.43
2018-05-12T15:21:51.419Z,13.67
2018-05-12T15:24:20.029Z,15.07
2018-05-12T15:26:48.670Z,14.47
2018-05-12T15:29:19.609Z,13.67
2018-05-12T15:31:48.268Z,12.93
2018-05-12T15:34:18.264Z,13.33
2018-05-12T15:36:47.181Z,13.37
2018-05-12T15:39:15.781Z,11.87
2018-05-12T15:41:44.558Z,12.23
2018-05-12T15:44:13.185Z,12.10
2018-05-12T15:46:42.149Z,12.63
2018-05-12T15:49:11.444Z,11.50
2018-05-12T15:51:42.821Z,11.30
2018-05-12T15:54:11.487Z,12.33
2018-05-12T15:56:41.158Z,12.43
2018-05-12T15:59:09.794Z,13.90
2018-05-12T16:01:39.160Z,11.77
2018-05-12T16:04:09.203Z,11.23
2018-05-12T16:06:39.041Z,11.00
2018-05-12T16:09:10.629Z,11.63
2018-05-12T16:11:40.886Z,9.67
2018-05-12T16:14:10.245Z,10.03
2018-05-12T16:16:39.262Z,9.70
2018-05-12T16:19:07.930Z,9.37
2018-05-12T16:21:36.473Z,9.47
2018-05-12T16:24:05.064Z,10.60
2018-05-12T16:26:33.929Z,11.03
2018-05-12T16:29:03.422Z,9.27
2018-05-12T16:31:33.697Z,9.80
2018-05-12T16:34:03.257Z,11.37
2018-05-12T16:36:33.209Z,9.47
2018-05-12T16:39:02.944Z,10.73
2018-05-12T16:41:32.588Z,10.43
2018-05-12T16:44:02.050Z,9.97
2018-05-12T16:46:30.577Z,8.83
2018-05-12T16:49:00.132Z,10.83
2018-05-12T16:51:29.098Z,9.87
2018-05-12T16:53:57.683Z,8.57
2018-05-12T16:56:29.501Z,8.83
2018-05-12T16:59:01.029Z,9.07
2018-05-12T17:01:34.007Z,8.13
2018-05-12T17:04:03.771Z,8.17
2018-05-12T17:06:35.261Z,8.17
2018-05-12T17:09:04.483Z,8.50
2018-05-12T17:11:34.350Z,7.07
2018-05-12T17:14:03.154Z,9.40
2018-05-12T17:16:33.251Z,8.30
2018-05-12T17:19:02.569Z,7.53
2018-05-12T17:21:32.390Z,8.53
2018-05-12T17:24:01.246Z,9.60
2018-05-12T17:26:30.408Z,8.20
2018-05-12T17:28:59.015Z,8.67
2018-05-12T17:31:29.164Z,8.43
2018-05-12T17:33:58.939Z,8.00
2018-05-12T17:36:31.705Z,8.00
2018-05-12T17:39:01.401Z,8.40
2018-05-12T17:41:31.317Z,7.63
2018-05-12T17:44:00.510Z,6.80
2018-05-12T17:46:29.066Z,7.37
2018-05-12T17:48:58.368Z,6.73
2018-05-12T17:51:27.666Z,7.20
2018-05-12T17:53:58.560Z,7.23
2018-05-12T17:56:27.321Z,6.70
2018-05-12T17:58:56.480Z,7.67
2018-05-12T18:01:25.945Z,7.20
2018-05-12T18:03:55.014Z,8.13
2018-05-12T18:06:23.601Z,7.03
2018-05-12T18:08:52.161Z,7.53
2018-05-12T18:11:21.450Z,8.13
2018-05-12T18:13:52.266Z,6.67
2018-05-12T18:16:20.958Z,7.23
2018-05-12T18:18:51.616Z,7.67
2018-05-12T18:21:20.978Z,7.37
2018-05-12T18:23:50.693Z,7.93
2018-05-12T18:26:19.381Z,7.37
2018-05-12T18:28:47.921Z,6.67
2018-05-12T18:31:17.373Z,8.03
2018-05-12T18:33:46.652Z,5.83
2018-05-12T18:36:16.003Z,6.70
2018-05-12T18:38:44.524Z,7.17
2018-05-12T18:41:13.171Z,7.20
2018-05-12T18:43:42.133Z,7.43
2018-05-12T18:46:12.469Z,6.70
2018-05-12T18:48:41.306Z,7.13
2018-05-12T18:51:10.590Z,7.37
2018-05-12T18:53:39.467Z,6.40
2018-05-12T18:56:08.215Z,6.27
2018-05-12T18:58:36.899Z,6.00
2018-05-12T19:01:06.161Z,12.10
2018-05-12T19:03:35.982Z,6.90
2018-05-12T19:06:05.326Z,10.03
2018-05-12T19:08:34.128Z,8.83
2018-05-12T19:11:02.805Z,11.23
2018-05-12T19:13:31.449Z,8.43
2018-05-12T19:16:00.147Z,10.87
2018-05-12T19:18:31.333Z,9.43
2018-05-12T19:21:00.153Z,11.30
2018-05-12T19:23:29.667Z,13.33
2018-05-12T19:25:59.839Z,23.23
2018-05-12T19:28:28.782Z,21.23
2018-05-12T19:30:59.317Z,26.07
2018-05-12T19:33:28.810Z,28.37
2018-05-12T19:35:58.122Z,28.13
2018-05-12T19:38:27.486Z,32.37
2018-05-12T19:40:56.212Z,27.13
2018-05-12T19:43:27.210Z,27.50
2018-05-12T20:00:41.547Z,32.43
2018-05-12T20:03:10.102Z,32.00
2018-05-12T20:05:39.337Z,28.50
2018-05-12T20:08:08.345Z,28.90
2018-05-12T20:10:36.896Z,30.17
2018-05-12T20:13:05.517Z,25.83
2018-05-12T20:15:34.099Z,24.00
